Terminal Aerodrome Forecast
Issued by NWS

Home | Current Version | Previous Version | Text Only | Print | Product List | Glossary On
Versions: 1 2 3 4 5 6 7 8 9 10 11 12 13 14 15 16 17 18 19 20 21 22 23 24
000
FTUS45 KSLC 210539
TAFLGU
TAF
KLGU 210539Z 2106/2206 VRB05KT P6SM SCT120
     FM210900 20006KT P6SM BKN080
     FM211400 27007KT P6SM -SHRA SCT040 BKN050
     FM211800 30010KT P6SM VCSH SCT040 BKN080
     FM220000 VRB04KT P6SM SCT080=

USA.gov is the U.S. government's official web portal to all federal, state and local government web resources and services.